createdAt,value
2018-07-17T00:03:47.199Z,19.40
2018-07-17T00:09:51.186Z,19.30
2018-07-17T00:15:55.618Z,19.20
2018-07-17T00:21:59.285Z,19.00
2018-07-17T00:28:03.117Z,18.90
2018-07-17T00:34:07.155Z,18.90
2018-07-17T00:40:11.157Z,19.10
2018-07-17T00:46:14.840Z,18.90
2018-07-17T00:52:18.601Z,18.70
2018-07-17T00:58:22.278Z,18.50
2018-07-17T01:04:31.119Z,18.50
2018-07-17T01:10:40.510Z,18.60
2018-07-17T01:16:44.311Z,18.70
2018-07-17T01:22:47.838Z,18.80
2018-07-17T01:28:51.563Z,19.00
2018-07-17T01:34:55.206Z,19.00
2018-07-17T01:40:59.320Z,19.00
2018-07-17T01:47:03.073Z,19.00
2018-07-17T01:53:06.705Z,18.90
2018-07-17T01:59:10.336Z,18.90
2018-07-17T02:05:13.909Z,18.80
2018-07-17T02:11:17.763Z,18.70
2018-07-17T02:17:21.598Z,18.70
2018-07-17T02:23:25.080Z,18.60
2018-07-17T02:29:28.847Z,18.50
2018-07-17T02:35:32.459Z,18.40
2018-07-17T02:41:37.267Z,18.30
2018-07-17T02:47:40.890Z,18.20
2018-07-17T02:53:44.590Z,18.10
2018-07-17T02:59:48.114Z,18.10
2018-07-17T03:05:51.859Z,18.10
2018-07-17T03:11:55.488Z,18.10
2018-07-17T03:17:59.083Z,18.00
2018-07-17T03:24:03.199Z,17.90
2018-07-17T03:30:06.851Z,17.80
2018-07-17T03:36:10.517Z,17.70
2018-07-17T03:42:14.578Z,17.80
2018-07-17T03:48:18.000Z,17.90
2018-07-17T03:54:21.812Z,17.90
2018-07-17T04:00:25.475Z,18.00
2018-07-17T04:06:29.494Z,18.20
2018-07-17T04:12:33.664Z,18.20
2018-07-17T04:18:38.315Z,18.20
2018-07-17T04:24:41.789Z,18.20
2018-07-17T04:30:45.244Z,18.30
2018-07-17T04:36:48.925Z,18.30
2018-07-17T04:42:52.392Z,18.40
2018-07-17T04:48:56.205Z,18.50
2018-07-17T04:54:59.685Z,18.70
2018-07-17T05:01:03.295Z,18.70
2018-07-17T05:07:06.799Z,18.80
2018-07-17T05:13:10.278Z,19.00
2018-07-17T05:19:13.761Z,19.20
2018-07-17T05:25:17.274Z,19.30
2018-07-17T05:31:20.843Z,19.50
2018-07-17T05:37:25.789Z,19.70
2018-07-17T05:43:30.012Z,19.90
2018-07-17T05:49:35.087Z,20.20
2018-07-17T05:55:39.216Z,20.50
2018-07-17T06:01:42.705Z,20.80
2018-07-17T06:07:45.994Z,21.00
2018-07-17T06:13:49.586Z,21.20
2018-07-17T06:19:53.434Z,21.30
2018-07-17T06:25:57.350Z,21.50
2018-07-17T06:32:01.350Z,21.70
2018-07-17T06:38:05.791Z,22.10
2018-07-17T06:44:09.146Z,22.30
2018-07-17T06:50:13.502Z,22.60
2018-07-17T06:56:17.330Z,22.90
2018-07-17T07:02:21.284Z,23.30
2018-07-17T07:08:25.453Z,23.80
2018-07-17T07:14:29.122Z,24.00
2018-07-17T07:20:32.659Z,24.10
2018-07-17T07:26:36.136Z,24.10
2018-07-17T07:32:39.828Z,24.20
2018-07-17T07:38:43.565Z,24.20
2018-07-17T07:44:47.277Z,24.20
2018-07-17T07:50:50.774Z,24.20
2018-07-17T07:56:54.320Z,24.30
2018-07-17T08:02:57.656Z,24.30
2018-07-17T08:09:01.045Z,24.30
2018-07-17T08:15:04.881Z,24.30
2018-07-17T08:21:08.613Z,24.20
2018-07-17T08:27:12.225Z,24.20
2018-07-17T08:33:16.282Z,24.40
2018-07-17T08:39:20.307Z,24.70
2018-07-17T08:45:24.614Z,24.80
2018-07-17T08:51:28.335Z,25.00
2018-07-17T08:57:32.715Z,25.20
2018-07-17T09:03:36.393Z,25.30
2018-07-17T09:09:40.078Z,25.50
2018-07-17T09:15:44.527Z,25.70
2018-07-17T09:21:48.154Z,25.90
2018-07-17T09:27:51.828Z,26.00
2018-07-17T09:33:55.442Z,26.30
2018-07-17T09:39:59.131Z,26.70
2018-07-17T09:46:02.658Z,26.80
2018-07-17T09:52:07.226Z,26.70
2018-07-17T09:58:11.747Z,26.80
2018-07-17T10:04:15.454Z,26.90
2018-07-17T10:10:19.525Z,27.10
2018-07-17T10:16:23.353Z,27.00
2018-07-17T10:22:26.727Z,27.00
2018-07-17T10:28:31.078Z,27.20
2018-07-17T10:34:34.633Z,27.30
2018-07-17T10:40:37.983Z,27.40
2018-07-17T10:46:42.104Z,27.30
2018-07-17T10:52:45.705Z,27.50
2018-07-17T10:58:49.809Z,27.70
2018-07-17T11:04:53.296Z,27.90
2018-07-17T11:10:56.676Z,27.90
2018-07-17T11:17:01.424Z,28.00
2018-07-17T11:23:05.724Z,28.00
2018-07-17T11:29:09.300Z,28.20
2018-07-17T11:35:13.565Z,28.50
2018-07-17T11:41:17.320Z,28.70
2018-07-17T11:47:24.114Z,28.80
2018-07-17T11:53:27.753Z,28.90
2018-07-17T11:59:31.403Z,29.10
2018-07-17T12:05:34.939Z,29.30
2018-07-17T12:11:39.279Z,29.40
2018-07-17T12:17:43.007Z,29.70
2018-07-17T12:23:46.825Z,29.50
2018-07-17T12:29:54.202Z,29.60
2018-07-17T12:35:57.972Z,29.40
2018-07-17T12:42:01.544Z,29.60
2018-07-17T12:48:06.753Z,30.10
2018-07-17T12:54:10.334Z,30.30
2018-07-17T13:00:14.029Z,30.70
2018-07-17T13:06:17.492Z,30.90
2018-07-17T13:12:21.060Z,31.10
2018-07-17T13:18:24.857Z,30.90
2018-07-17T13:24:28.344Z,30.40
2018-07-17T13:30:32.131Z,30.20
2018-07-17T13:36:36.299Z,30.20
2018-07-17T13:42:40.290Z,30.30
2018-07-17T13:48:46.058Z,30.30
2018-07-17T13:54:49.441Z,30.10
2018-07-17T14:00:53.318Z,30.20
2018-07-17T14:06:56.707Z,30.40
2018-07-17T14:13:00.091Z,30.70
2018-07-17T14:19:03.519Z,30.40
2018-07-17T14:25:07.085Z,31.00
2018-07-17T14:31:10.788Z,31.40
2018-07-17T14:37:14.352Z,31.90
2018-07-17T14:43:19.400Z,31.80
2018-07-17T14:49:22.717Z,32.00
2018-07-17T14:55:26.445Z,31.90
2018-07-17T15:01:31.392Z,31.40
2018-07-17T15:07:34.869Z,30.80
2018-07-17T15:13:38.342Z,30.90
2018-07-17T15:19:43.615Z,30.70
2018-07-17T15:25:47.332Z,30.40
2018-07-17T15:31:51.319Z,30.40
2018-07-17T15:37:54.782Z,30.60
2018-07-17T15:43:58.342Z,30.20
2018-07-17T15:50:01.915Z,30.50
2018-07-17T15:56:06.061Z,30.60
2018-07-17T16:02:10.199Z,30.60
2018-07-17T16:08:13.651Z,31.30
2018-07-17T16:14:17.485Z,31.40
2018-07-17T16:20:21.634Z,30.80
2018-07-17T16:26:25.372Z,30.80
2018-07-17T16:32:29.127Z,31.20
2018-07-17T16:38:32.937Z,31.30
2018-07-17T16:44:36.372Z,30.50
2018-07-17T16:50:40.189Z,30.30
2018-07-17T16:56:43.809Z,30.60
2018-07-17T17:02:47.805Z,30.70
2018-07-17T17:08:51.378Z,30.80
2018-07-17T17:14:55.603Z,30.50
2018-07-17T17:21:00.123Z,29.90
2018-07-17T17:27:05.737Z,29.60
2018-07-17T17:33:10.902Z,29.30
2018-07-17T17:39:14.807Z,29.10
2018-07-17T17:45:18.243Z,29.10
2018-07-17T17:51:21.980Z,28.90
2018-07-17T17:57:28.570Z,28.70
2018-07-17T18:03:32.156Z,28.50
2018-07-17T18:09:36.218Z,28.30
2018-07-17T18:15:39.983Z,27.70
2018-07-17T18:21:44.631Z,27.30
2018-07-17T18:27:48.034Z,27.10
2018-07-17T18:33:51.573Z,26.70
2018-07-17T18:39:55.193Z,26.40
2018-07-17T18:46:00.910Z,26.20
2018-07-17T18:52:04.456Z,25.90
2018-07-17T18:58:07.779Z,25.70
2018-07-17T19:04:11.381Z,25.50
2018-07-17T19:10:15.164Z,25.40
2018-07-17T19:16:18.574Z,25.10
2018-07-17T19:22:23.335Z,24.90
2018-07-17T19:28:26.740Z,24.50
2018-07-17T19:34:30.494Z,24.20
2018-07-17T19:40:33.987Z,23.90
2018-07-17T19:46:37.431Z,23.60
2018-07-17T19:52:40.954Z,23.40
2018-07-17T19:58:44.479Z,23.30
2018-07-17T20:04:48.684Z,23.20
2018-07-17T20:10:52.178Z,23.10
2018-07-17T20:16:55.684Z,23.00
2018-07-17T20:22:59.333Z,22.80
2018-07-17T20:29:02.773Z,22.70
2018-07-17T20:35:10.380Z,22.70
2018-07-17T20:41:14.032Z,22.50
2018-07-17T20:47:18.504Z,22.40
2018-07-17T20:53:22.324Z,22.30
2018-07-17T20:59:26.663Z,22.20
2018-07-17T21:05:30.164Z,22.00
2018-07-17T21:11:33.509Z,21.90
2018-07-17T21:17:37.572Z,21.70
2018-07-17T21:23:41.968Z,21.50
2018-07-17T21:29:45.640Z,21.50
2018-07-17T21:35:50.068Z,21.50
2018-07-17T21:41:53.498Z,21.30
2018-07-17T21:47:57.210Z,21.10
2018-07-17T21:54:00.730Z,21.00
2018-07-17T22:00:06.987Z,20.90
2018-07-17T22:06:11.184Z,20.80
2018-07-17T22:12:14.529Z,20.70
2018-07-17T22:18:18.042Z,20.70
2018-07-17T22:24:28.283Z,20.70
2018-07-17T22:30:31.582Z,20.70
2018-07-17T22:36:35.022Z,20.70
2018-07-17T22:42:38.645Z,20.70
2018-07-17T22:48:43.296Z,20.70
2018-07-17T22:54:47.011Z,20.50
2018-07-17T23:00:50.369Z,20.30
2018-07-17T23:06:54.152Z,20.20
2018-07-17T23:12:58.111Z,20.00
2018-07-17T23:19:01.810Z,19.90
2018-07-17T23:25:05.324Z,19.80
2018-07-17T23:31:09.999Z,19.70
2018-07-17T23:37:13.566Z,19.70
2018-07-17T23:43:17.476Z,19.50
2018-07-17T23:49:26.715Z,19.40
2018-07-17T23:55:30.060Z,19.40
